Time;durP1;ratioP1;P1;durP2;ratioP2;P2;SDS_P1;SDS_P2;PMS_P1;PMS_P2;Temp;Humidity;BMP_temperature;BMP_pressure;BME280_temperature;BME280_humidity;BME280_pressure;Samples;Min_cycle;Max_cycle;Signal;HPM_P1;HPM_P2
2023/04/29 00:02:14;;;;;;;;;;;;;;;-144.99;100.00;52331.91;5079259;28;20427;-68
2023/04/29 00:04:41;;;;;;;;;;;;;;;-144.99;100.00;52356.38;5085435;28;19987;-67
2023/04/29 00:07:08;;;;;;;;;;;;;;;-144.99;100.00;52323.75;5072704;28;19925;-68
2023/04/29 00:09:35;;;;;;;;;;;;;;;-144.99;100.00;52338.03;5074425;28;19950;-68
2023/04/29 00:12:01;;;;;;;;;;;;;;;-144.99;100.00;52325.81;5071116;28;19980;-67
2023/04/29 00:14:28;;;;;;;;;;;;;;;-144.99;100.00;52338.03;5070865;28;20015;-67
2023/04/29 00:16:54;;;;;;;;;;;;;;;-144.99;100.00;52329.88;5070595;28;20001;-67
2023/04/29 00:19:21;;;;;;;;;;;;;;;-144.99;100.00;52342.09;5075249;28;20325;-67
2023/04/29 00:21:48;;;;;;;;;;;;;;;-144.99;100.00;52340.06;5079327;28;19959;-66
2023/04/29 00:24:15;;;;;;;;;;;;;;;-144.99;100.00;52338.03;5070866;28;20100;-71
2023/04/29 00:26:41;;;;;;;;;;;;;;;-144.99;100.00;52370.63;5081244;28;19970;-71
2023/04/29 00:29:08;;;;;;;;;;;;;;;-144.99;100.00;52354.34;5075039;28;20351;-71
2023/04/29 00:31:36;;;;;;;;;;;;;;;-144.99;100.00;52342.09;5070219;28;20378;-70
2023/04/29 00:34:02;;;;;;;;;;;;;;;-144.99;100.00;52376.75;5070859;28;19965;-71
2023/04/29 00:36:30;;;;;;;;;;;;;;;-144.99;100.00;52362.50;5070923;28;19932;-71
2023/04/29 00:38:58;;;;;;;;;;;;;;;-144.99;100.00;52342.09;5077055;28;20027;-70
2023/04/29 00:41:26;;;;;;;;;;;;;;;-144.99;100.00;52356.38;5078671;28;19923;-69
2023/04/29 00:43:52;;;;;;;;;;;;;;;-144.99;100.00;52366.56;5078769;28;20396;-69
2023/04/29 00:46:19;;;;;;;;;;;;;;;-144.99;100.00;52323.75;5070946;28;19924;-69
2023/04/29 00:48:45;;;;;;;;;;;;;;;-144.99;100.00;52333.94;5078868;28;20035;-69
2023/04/29 00:51:12;;;;;;;;;;;;;;;-144.99;100.00;52358.41;5074169;28;19932;-69
2023/04/29 00:53:39;;;;;;;;;;;;;;;-144.99;100.00;52313.56;5081090;28;20295;-68
2023/04/29 00:56:09;;;;;;;;;;;;;;;-144.99;100.00;52374.72;5084384;28;19946;-66
2023/04/29 00:58:38;;;;;;;;;;;;;;;-144.99;100.00;52364.53;5070833;28;19932;-67
2023/04/29 01:01:05;;;;;;;;;;;;;;;-144.99;100.00;52338.03;5076834;28;20332;-67
2023/04/29 01:03:31;;;;;;;;;;;;;;;-144.99;100.00;52342.09;5079431;28;19935;-67
2023/04/29 01:06:04;;;;;;;;;;;;;;;-144.99;100.00;52317.66;5072278;28;19942;-67
2023/04/29 01:08:34;;;;;;;;;;;;;;;-144.99;100.00;52319.69;5078759;28;19924;-67
2023/04/29 01:11:05;;;;;;;;;;;;;;;-144.99;100.00;52325.81;5074045;28;20210;-67
2023/04/29 01:13:38;;;;;;;;;;;;;;;-144.99;100.00;52374.72;5072546;28;19932;-67
2023/04/29 01:16:07;;;;;;;;;;;;;;;-144.99;100.00;52338.03;5076651;28;19924;-66
2023/04/29 01:18:36;;;;;;;;;;;;;;;-144.99;100.00;52329.88;5073792;28;19924;-66
2023/04/29 01:21:03;;;;;;;;;;;;;;;-144.99;100.00;52333.94;5078841;28;19928;-66
2023/04/29 01:23:31;;;;;;;;;;;;;;;-144.99;100.00;52315.59;5074107;28;20296;-65
2023/04/29 01:25:58;;;;;;;;;;;;;;;-144.99;100.00;52350.25;5075998;28;19973;-71
2023/04/29 01:28:35;;;;;;;;;;;;;;;-144.99;100.00;52354.34;5096067;28;19970;-72
2023/04/29 01:31:07;;;;;;;;;;;;;;;-144.99;100.00;52342.09;5089079;28;20534;-72
2023/04/29 01:33:40;;;;;;;;;;;;;;;-144.99;100.00;52370.63;5092539;28;19925;-73
2023/04/29 01:36:12;;;;;;;;;;;;;;;-144.99;100.00;52329.88;5089182;28;19943;-72
2023/04/29 01:38:44;;;;;;;;;;;;;;;-144.99;100.00;52354.34;5072822;28;20365;-72
2023/04/29 01:41:12;;;;;;;;;;;;;;;-144.99;100.00;52366.56;5079031;28;19940;-72
2023/04/29 01:43:40;;;;;;;;;;;;;;;-144.99;100.00;52358.41;5079210;28;19960;-72
2023/04/29 01:46:09;;;;;;;;;;;;;;;-144.99;100.00;52362.50;5073052;28;20391;-72
2023/04/29 01:48:36;;;;;;;;;;;;;;;-144.99;100.00;52354.34;5069881;28;19931;-72
2023/04/29 01:51:04;;;;;;;;;;;;;;;-144.99;100.00;52323.75;5080188;28;20032;-72
2023/04/29 01:53:31;;;;;;;;;;;;;;;-144.99;100.00;52325.81;5073363;28;19932;-72
2023/04/29 01:55:59;;;;;;;;;;;;;;;-144.99;100.00;52364.53;5077775;28;20027;-72
2023/04/29 01:58:26;;;;;;;;;;;;;;;-144.99;100.00;52325.81;5069549;28;19994;-72
2023/04/29 02:00:53;;;;;;;;;;;;;;;-144.99;100.00;52344.16;5074538;28;19934;-72
2023/04/29 02:03:20;;;;;;;;;;;;;;;-144.99;100.00;52358.41;5077544;28;19924;-71
2023/04/29 02:05:46;;;;;;;;;;;;;;;-144.99;100.00;52370.63;5077767;28;20424;-72
2023/04/29 02:08:13;;;;;;;;;;;;;;;-144.99;100.00;52305.41;5075704;28;20001;-72
2023/04/29 02:10:39;;;;;;;;;;;;;;;-144.99;100.00;52352.28;5079336;28;19956;-72
2023/04/29 02:13:07;;;;;;;;;;;;;;;-144.99;100.00;52336.00;5071977;28;19991;-71
2023/04/29 02:15:34;;;;;;;;;;;;;;;-144.99;100.00;52372.69;5067915;28;19924;-71
2023/04/29 02:18:00;;;;;;;;;;;;;;;-144.99;100.00;52311.53;5070232;28;20073;-71
2023/04/29 02:20:27;;;;;;;;;;;;;;;-144.99;100.00;52321.72;5070613;28;19928;-71
2023/04/29 02:22:53;;;;;;;;;;;;;;;-144.99;100.00;52350.25;5069538;28;19968;-70
2023/04/29 02:25:20;;;;;;;;;;;;;;;-144.99;100.00;52354.34;5071513;28;19970;-70
2023/04/29 02:27:46;;;;;;;;;;;;;;;-144.99;100.00;52366.56;5074776;28;19925;-69
2023/04/29 02:30:14;;;;;;;;;;;;;;;-144.99;100.00;52366.56;5069048;28;19978;-72
2023/04/29 02:32:41;;;;;;;;;;;;;;;-144.99;100.00;52413.44;5068267;28;20057;-72
2023/04/29 02:35:08;;;;;;;;;;;;;;;-144.99;100.00;52344.16;5068765;28;19924;-70
2023/04/29 02:37:34;;;;;;;;;;;;;;;-144.99;100.00;52368.59;5071315;28;20313;-72
2023/04/29 02:40:03;;;;;;;;;;;;;;;-144.99;100.00;52336.00;5079975;28;19929;-69
2023/04/29 02:42:29;;;;;;;;;;;;;;;-144.99;100.00;52366.56;5076639;28;19928;-69
2023/04/29 02:44:56;;;;;;;;;;;;;;;-144.99;100.00;52313.56;5068523;28;19928;-67
2023/04/29 02:47:24;;;;;;;;;;;;;;;-144.99;100.00;52372.69;5077151;28;20050;-70
2023/04/29 02:49:51;;;;;;;;;;;;;;;-144.99;100.00;52358.41;5069219;28;20078;-71
2023/04/29 02:52:17;;;;;;;;;;;;;;;-144.99;100.00;52395.09;5085132;28;19925;-71
2023/04/29 02:54:44;;;;;;;;;;;;;;;-144.99;100.00;52374.72;5079789;28;20365;-70
2023/04/29 02:57:11;;;;;;;;;;;;;;;-144.99;100.00;52364.53;5071598;28;19952;-70
2023/04/29 02:59:37;;;;;;;;;;;;;;;-144.99;100.00;52338.03;5067815;28;19924;-70
2023/04/29 03:02:04;;;;;;;;;;;;;;;-144.99;100.00;52358.41;5076364;28;20158;-71
2023/04/29 03:04:31;;;;;;;;;;;;;;;-144.99;100.00;52338.03;5081626;28;19975;-71
2023/04/29 03:06:58;;;;;;;;;;;;;;;-144.99;100.00;52333.94;5068256;28;19972;-70
2023/04/29 03:09:24;;;;;;;;;;;;;;;-144.99;100.00;52338.03;5074205;28;19959;-70
2023/04/29 03:11:52;;;;;;;;;;;;;;;-144.99;100.00;52386.94;5067920;28;20336;-69
2023/04/29 03:14:18;;;;;;;;;;;;;;;-144.99;100.00;52370.63;5068047;28;19929;-70
2023/04/29 03:16:45;;;;;;;;;;;;;;;-144.99;100.00;52364.53;5070406;28;20235;-71
2023/04/29 03:19:12;;;;;;;;;;;;;;;-144.99;100.00;52336.00;5074053;28;19959;-71
2023/04/29 03:21:39;;;;;;;;;;;;;;;-144.99;100.00;52382.88;5067993;28;19937;-70
2023/04/29 03:24:06;;;;;;;;;;;;;;;-144.99;100.00;52380.84;5071000;28;19932;-70
2023/04/29 03:26:33;;;;;;;;;;;;;;;-144.99;100.00;52354.34;5070706;28;20322;-71
2023/04/29 03:28:59;;;;;;;;;;;;;;;-144.99;100.00;52378.78;5073980;28;21017;-70
2023/04/29 03:31:26;;;;;;;;;;;;;;;-144.99;100.00;52354.34;5084546;28;19924;-71
2023/04/29 03:33:53;;;;;;;;;;;;;;;-144.99;100.00;52368.59;5068304;28;20051;-71
2023/04/29 03:36:19;;;;;;;;;;;;;;;-144.99;100.00;52358.41;5067922;28;19990;-71
2023/04/29 03:38:49;;;;;;;;;;;;;;;-144.99;100.00;52374.72;5067772;28;20360;-70
2023/04/29 03:41:16;;;;;;;;;;;;;;;-144.99;100.00;52358.41;5081096;28;20360;-70
2023/04/29 03:43:43;;;;;;;;;;;;;;;-144.99;100.00;52366.56;5076456;28;19955;-72
2023/04/29 03:46:10;;;;;;;;;;;;;;;-144.99;100.00;52329.88;5072889;28;20408;-69
2023/04/29 03:48:37;;;;;;;;;;;;;;;-144.99;100.00;52329.88;5077688;28;20455;-70
2023/04/29 03:51:04;;;;;;;;;;;;;;;-144.99;100.00;52362.50;5072037;28;19924;-72
2023/04/29 03:53:31;;;;;;;;;;;;;;;-144.99;100.00;52362.50;5070701;28;20048;-72
2023/04/29 03:55:59;;;;;;;;;;;;;;;-144.99;100.00;52382.88;5074179;28;19986;-72
2023/04/29 03:58:26;;;;;;;;;;;;;;;-144.99;100.00;52350.25;5072329;28;20196;-72
2023/04/29 04:00:52;;;;;;;;;;;;;;;-144.99;100.00;52364.53;5069335;28;20340;-73
2023/04/29 04:03:19;;;;;;;;;;;;;;;-144.99;100.00;52352.28;5076387;28;20379;-74
2023/04/29 04:05:45;;;;;;;;;;;;;;;-144.99;100.00;52366.56;5075619;28;20002;-72
2023/04/29 04:08:12;;;;;;;;;;;;;;;-144.99;100.00;52386.94;5073448;28;19975;-72
2023/04/29 04:10:38;;;;;;;;;;;;;;;-144.99;100.00;52374.72;5067496;28;19932;-72
2023/04/29 04:13:06;;;;;;;;;;;;;;;-144.99;100.00;52329.88;5067579;28;20420;-71
2023/04/29 04:15:33;;;;;;;;;;;;;;;-144.99;100.00;52333.94;5079304;28;19955;-75
2023/04/29 04:17:59;;;;;;;;;;;;;;;-144.99;100.00;52331.91;5075592;28;19924;-74
2023/04/29 04:20:26;;;;;;;;;;;;;;;-144.99;100.00;52372.69;5082813;28;20014;-73
2023/04/29 04:22:53;;;;;;;;;;;;;;;-144.99;100.00;52338.03;5075910;28;20395;-72
2023/04/29 04:25:20;;;;;;;;;;;;;;;-144.99;100.00;52354.34;5067501;28;19936;-72
2023/04/29 04:27:46;;;;;;;;;;;;;;;-144.99;100.00;52354.34;5073851;28;19928;-74
2023/04/29 04:30:14;;;;;;;;;;;;;;;-144.99;100.00;52309.50;5067842;28;19931;-74
2023/04/29 04:32:41;;;;;;;;;;;;;;;-144.99;100.00;52378.78;5068927;28;19938;-74
2023/04/29 04:35:08;;;;;;;;;;;;;;;-144.99;100.00;52366.56;5080420;28;19985;-74
2023/04/29 04:37:34;;;;;;;;;;;;;;;-144.99;100.00;52348.22;5079452;28;20033;-71
2023/04/29 04:40:01;;;;;;;;;;;;;;;-144.99;100.00;52395.09;5082218;28;20073;-72
2023/04/29 04:42:27;;;;;;;;;;;;;;;-144.99;100.00;52333.94;5071384;28;20372;-72
2023/04/29 04:44:54;;;;;;;;;;;;;;;-144.99;100.00;52366.56;5077200;28;19971;-71
2023/04/29 04:47:22;;;;;;;;;;;;;;;-144.99;100.00;52415.47;5070290;28;20027;-71
2023/04/29 04:49:51;;;;;;;;;;;;;;;-144.99;100.00;52376.75;5074966;28;20037;-67
2023/04/29 04:52:19;;;;;;;;;;;;;;;-144.99;100.00;52374.72;5072006;28;19924;-67
2023/04/29 04:54:46;;;;;;;;;;;;;;;-144.99;100.00;52350.25;5076635;28;20043;-67
2023/04/29 04:57:12;;;;;;;;;;;;;;;-144.99;100.00;52342.09;5081940;28;19924;-67
2023/04/29 04:59:39;;;;;;;;;;;;;;;-144.99;100.00;52370.63;5070717;28;20005;-67
2023/04/29 05:02:07;;;;;;;;;;;;;;;-144.99;100.00;52350.25;5070270;28;19985;-66
2023/04/29 05:04:35;;;;;;;;;;;;;;;-144.99;100.00;52342.09;5077251;28;20019;-66
2023/04/29 05:07:01;;;;;;;;;;;;;;;-144.99;100.00;52321.72;5070372;28;19928;-66
2023/04/29 05:09:28;;;;;;;;;;;;;;;-144.99;100.00;52364.53;5073591;28;19929;-67
2023/04/29 05:11:54;;;;;;;;;;;;;;;-144.99;100.00;52388.97;5076009;28;19925;-77
2023/04/29 05:14:21;;;;;;;;;;;;;;;-144.99;100.00;52342.09;5072655;28;19924;-77
2023/04/29 05:16:48;;;;;;;;;;;;;;;-144.99;100.00;52374.72;5074848;28;20035;-76
2023/04/29 05:19:14;;;;;;;;;;;;;;;-144.99;100.00;52329.88;5077686;28;19924;-77
2023/04/29 05:21:42;;;;;;;;;;;;;;;-144.99;100.00;52338.03;5074634;28;19930;-77
2023/04/29 05:24:09;;;;;;;;;;;;;;;-144.99;100.00;52342.09;5085859;28;19924;-75
2023/04/29 05:26:35;;;;;;;;;;;;;;;-144.99;100.00;52350.25;5072519;28;20029;-70
2023/04/29 05:29:02;;;;;;;;;;;;;;;-144.99;100.00;52338.03;5083700;28;20061;-71
2023/04/29 05:31:28;;;;;;;;;;;;;;;-144.99;100.00;52321.72;5077241;28;19925;-70
2023/04/29 05:33:55;;;;;;;;;;;;;;;-144.99;100.00;52325.81;5075997;28;19928;-70
2023/04/29 05:36:21;;;;;;;;;;;;;;;-144.99;100.00;52331.91;5069679;28;19970;-71
2023/04/29 05:38:50;;;;;;;;;;;;;;;-144.99;100.00;52327.84;5077253;28;19925;-71
2023/04/29 05:41:16;;;;;;;;;;;;;;;-144.99;100.00;52325.81;5076569;28;19931;-70
2023/04/29 05:43:43;;;;;;;;;;;;;;;-144.99;100.00;52319.69;5088067;28;19928;-71
2023/04/29 05:46:11;;;;;;;;;;;;;;;-144.99;99.97;52285.03;5070406;28;20024;-76
2023/04/29 05:48:38;;;;;;;;;;;;;;;-144.99;98.90;52338.03;5080523;28;19931;-68
2023/04/29 05:51:05;;;;;;;;;;;;;;;-144.99;98.25;52321.72;5081019;28;20154;-68
2023/04/29 05:53:32;;;;;;;;;;;;;;;-144.99;97.14;52354.34;5073527;28;19970;-68
2023/04/29 05:56:03;;;;;;;;;;;;;;;-144.99;96.16;52327.84;5078080;28;20348;-68
2023/04/29 05:58:30;;;;;;;;;;;;;;;-144.99;95.23;52329.88;5071348;28;19951;-68
2023/04/29 06:00:56;;;;;;;;;;;;;;;-144.99;94.26;52301.34;5074845;28;20153;-68
2023/04/29 06:03:23;;;;;;;;;;;;;;;-144.99;94.01;52331.91;5078457;28;19928;-68
2023/04/29 06:05:50;;;;;;;;;;;;;;;-144.99;93.51;52321.72;5089371;28;19981;-68
2023/04/29 06:08:16;;;;;;;;;;;;;;;-144.99;93.73;52350.25;5075861;28;19963;-68
2023/04/29 06:10:43;;;;;;;;;;;;;;;-144.99;93.85;52305.41;5069068;28;20385;-68
2023/04/29 06:13:11;;;;;;;;;;;;;;;-144.99;93.72;52346.19;5069126;28;19929;-69
2023/04/29 06:15:37;;;;;;;;;;;;;;;-144.99;94.23;52327.84;5069155;28;20365;-69
2023/04/29 06:18:04;;;;;;;;;;;;;;;-144.99;94.36;52354.34;5070931;28;19985;-69
2023/04/29 06:20:31;;;;;;;;;;;;;;;-144.99;94.24;52374.72;5079152;28;19928;-69
2023/04/29 06:22:57;;;;;;;;;;;;;;;-144.99;94.27;52333.94;5069896;28;20335;-69
2023/04/29 06:25:24;;;;;;;;;;;;;;;-144.99;94.01;52370.63;5070559;28;19925;-76
2023/04/29 06:27:50;;;;;;;;;;;;;;;-144.99;93.88;52325.81;5075887;28;20385;-70
2023/04/29 06:30:18;;;;;;;;;;;;;;;-144.99;93.85;52329.88;5069282;28;19974;-70
2023/04/29 06:32:45;;;;;;;;;;;;;;;-144.99;93.43;52272.81;5071103;28;19963;-73
2023/04/29 06:35:11;;;;;;;;;;;;;;;-144.99;93.01;52350.25;5080307;28;19928;-73
2023/04/29 06:37:38;;;;;;;;;;;;;;;-144.99;92.88;52350.25;5073060;28;19955;-73
2023/04/29 06:40:05;;;;;;;;;;;;;;;-144.99;92.43;52342.09;5069803;28;19978;-73
2023/04/29 06:42:31;;;;;;;;;;;;;;;-144.99;90.56;52305.41;5071676;28;19936;-73
2023/04/29 06:44:58;;;;;;;;;;;;;;;-144.99;88.53;52285.03;5069516;28;20422;-74
2023/04/29 06:47:26;;;;;;;;;;;;;;;-144.99;87.35;52305.41;5068113;28;20303;-74
2023/04/29 06:49:53;;;;;;;;;;;;;;;-144.99;86.04;52297.25;5069865;28;19932;-74
2023/04/29 06:52:19;;;;;;;;;;;;;;;-144.99;85.03;52301.34;5085071;28;19939;-74
2023/04/29 06:54:46;;;;;;;;;;;;;;;-144.99;84.71;52321.72;5075469;28;19928;-76
2023/04/29 06:57:13;;;;;;;;;;;;;;;-144.99;84.43;52321.72;5081489;28;19977;-71
2023/04/29 06:59:39;;;;;;;;;;;;;;;-144.99;84.21;52289.13;5080809;28;19929;-68
2023/04/29 07:02:06;;;;;;;;;;;;;;;-144.99;83.83;52321.72;5082762;28;19924;-70
2023/04/29 07:04:36;;;;;;;;;;;;;;;-144.99;83.85;52293.19;5081431;28;19996;-71
2023/04/29 07:07:03;;;;;;;;;;;;;;;-144.99;83.22;52342.09;5091295;28;19932;-71
2023/04/29 07:09:29;;;;;;;;;;;;;;;-144.99;83.45;52321.72;5084054;28;19928;-71
2023/04/29 07:11:56;;;;;;;;;;;;;;;-144.99;83.12;52301.34;5074581;28;19924;-71
2023/04/29 07:14:22;;;;;;;;;;;;;;;-144.99;82.35;52331.91;5082715;28;20327;-71
2023/04/29 07:16:53;;;;;;;;;;;;;;;-144.99;81.38;52342.09;5077479;28;19956;-71
2023/04/29 07:19:19;;;;;;;;;;;;;;;-144.99;81.46;52350.25;5076042;28;19924;-71
2023/04/29 07:21:47;;;;;;;;;;;;;;;-144.99;80.96;52358.41;5085990;28;19924;-71
2023/04/29 07:24:16;;;;;;;;;;;;;;;-144.99;81.25;52305.41;5080754;28;19940;-72
2023/04/29 07:26:43;;;;;;;;;;;;;;;-144.99;81.49;52291.16;5078799;28;19924;-70
2023/04/29 07:29:09;;;;;;;;;;;;;;;-144.99;81.25;52333.94;5076744;28;19974;-72
2023/04/29 07:31:36;;;;;;;;;;;;;;;-144.99;81.14;52307.47;5074200;28;20053;-72
2023/04/29 07:34:02;;;;;;;;;;;;;;;-144.99;81.57;52317.66;5069845;28;19929;-63
2023/04/29 07:36:30;;;;;;;;;;;;;;;-144.99;81.91;52313.56;5066888;28;19975;-65
2023/04/29 07:38:58;;;;;;;;;;;;;;;-144.99;80.02;52305.41;5068169;28;19928;-68
2023/04/29 07:41:24;;;;;;;;;;;;;;;-144.99;78.57;52285.03;5067783;28;20073;-68
2023/04/29 07:43:51;;;;;;;;;;;;;;;-144.99;77.70;52301.34;5067964;28;19979;-68
2023/04/29 07:46:18;;;;;;;;;;;;;;;-144.99;76.35;52280.97;5067499;28;20239;-68
2023/04/29 07:48:45;;;;;;;;;;;;;;;-144.99;76.55;52293.19;5067994;28;19928;-69
2023/04/29 07:51:12;;;;;;;;;;;;;;;-144.99;75.97;52280.97;5068584;28;20022;-68
2023/04/29 07:53:39;;;;;;;;;;;;;;;-144.99;75.61;52313.56;5068391;28;20364;-69
2023/04/29 07:56:08;;;;;;;;;;;;;;;-144.99;75.05;52305.41;5079225;28;19987;-68
2023/04/29 07:58:34;;;;;;;;;;;;;;;-144.99;75.33;52280.97;5086418;28;19924;-68
2023/04/29 08:01:05;;;;;;;;;;;;;;;-144.99;74.26;52276.88;5072784;28;20342;-68
2023/04/29 08:03:31;;;;;;;;;;;;;;;-144.99;75.01;52289.13;5075245;28;19932;-68
2023/04/29 08:06:01;;;;;;;;;;;;;;;-144.99;74.62;52260.56;5078783;28;20363;-68
2023/04/29 08:08:27;;;;;;;;;;;;;;;-144.99;74.88;52266.69;5075941;28;20076;-69
2023/04/29 08:10:54;;;;;;;;;;;;;;;-144.99;74.40;52280.97;5077968;28;19931;-69
2023/04/29 08:13:21;;;;;;;;;;;;;;;-144.99;74.37;52283.00;5080823;28;20069;-69
2023/04/29 08:15:48;;;;;;;;;;;;;;;-144.99;73.59;52289.13;5078347;28;20360;-68
2023/04/29 08:18:15;;;;;;;;;;;;;;;-144.99;72.95;52248.34;5082778;28;20369;-68
2023/04/29 08:20:41;;;;;;;;;;;;;;;-144.99;72.71;52276.88;5071439;28;20400;-68
2023/04/29 08:23:08;;;;;;;;;;;;;;;-144.99;72.58;52256.50;5071753;28;19925;-68
2023/04/29 08:25:34;;;;;;;;;;;;;;;-144.99;72.31;52289.13;5071925;28;19985;-69
2023/04/29 08:28:01;;;;;;;;;;;;;;;-144.99;71.84;52254.47;5078059;28;19964;-68
2023/04/29 08:30:29;;;;;;;;;;;;;;;-144.99;71.67;52266.69;5071541;28;20314;-68
2023/04/29 08:32:56;;;;;;;;;;;;;;;-144.99;71.30;52252.44;5071492;28;20433;-68
2023/04/29 08:35:22;;;;;;;;;;;;;;;-144.99;70.94;52268.72;5070937;28;19929;-68
2023/04/29 08:37:49;;;;;;;;;;;;;;;-144.99;70.85;52256.50;5070790;28;20004;-69
2023/04/29 08:40:15;;;;;;;;;;;;;;;-144.99;71.20;52268.72;5071325;28;20008;-69
2023/04/29 08:42:45;;;;;;;;;;;;;;;-144.99;71.36;52260.56;5071380;28;20171;-69
2023/04/29 08:45:13;;;;;;;;;;;;;;;-144.99;70.46;52262.63;5079346;28;19924;-69
2023/04/29 08:47:41;;;;;;;;;;;;;;;-144.99;69.98;52236.13;5072564;28;19924;-69
2023/04/29 08:50:09;;;;;;;;;;;;;;;-144.99;70.29;52244.28;5076219;28;19972;-69
2023/04/29 08:52:35;;;;;;;;;;;;;;;-144.99;69.49;52266.69;5077976;28;19985;-69
2023/04/29 08:55:04;;;;;;;;;;;;;;;-144.99;69.80;52256.50;5081442;28;19947;-69
2023/04/29 08:57:38;;;;;;;;;;;;;;;-144.99;69.51;52256.50;5087282;28;19947;-69
2023/04/29 09:00:06;;;;;;;;;;;;;;;-144.99;68.68;52232.03;5080265;28;19924;-69
2023/04/29 09:02:33;;;;;;;;;;;;;;;-144.99;68.66;52223.88;5080357;28;20397;-69
2023/04/29 09:05:05;;;;;;;;;;;;;;;-144.99;68.98;52215.75;5087425;28;19928;-69
2023/04/29 09:07:32;;;;;;;;;;;;;;;-144.99;68.63;52211.66;5092660;28;19924;-69
2023/04/29 09:09:59;;;;;;;;;;;;;;;-144.99;67.25;52260.56;5093823;28;19924;-69
2023/04/29 09:12:26;;;;;;;;;;;;;;;-144.99;67.11;52268.72;5091299;28;19928;-69
2023/04/29 09:14:52;;;;;;;;;;;;;;;-144.99;67.36;52244.28;5098416;28;19928;-69
2023/04/29 09:17:19;;;;;;;;;;;;;;;-144.99;67.82;52223.88;5090271;28;20177;-70
2023/04/29 09:19:45;;;;;;;;;;;;;;;-144.99;67.79;52280.97;5088970;28;19980;-70
2023/04/29 09:22:13;;;;;;;;;;;;;;;-144.99;68.04;52305.41;5084336;28;19978;-70
2023/04/29 09:24:40;;;;;;;;;;;;;;;-144.99;68.46;52248.34;5082178;28;19951;-70
2023/04/29 09:27:08;;;;;;;;;;;;;;;-144.99;67.84;52289.13;5081774;28;20128;-69
2023/04/29 09:29:37;;;;;;;;;;;;;;;-144.99;67.80;52248.34;5077298;28;19924;-69
2023/04/29 09:32:18;;;;;;;;;;;;;;;-144.99;67.13;52268.72;5074538;28;19935;-70
2023/04/29 09:34:45;;;;;;;;;;;;;;;-144.99;67.17;52232.03;5072415;28;19935;-70
2023/04/29 09:37:23;;;;;;;;;;;;;;;-144.99;66.82;52199.44;5070503;28;19938;-70
2023/04/29 09:39:49;;;;;;;;;;;;;;;-144.99;66.59;52254.47;5078194;28;19928;-69
2023/04/29 09:42:16;;;;;;;;;;;;;;;-144.99;66.25;52215.75;5078802;28;19962;-70
2023/04/29 09:44:44;;;;;;;;;;;;;;;-144.99;66.24;52232.03;5070560;28;19969;-70
2023/04/29 09:47:12;;;;;;;;;;;;;;;-144.99;65.29;52240.19;5079568;28;20027;-70
2023/04/29 09:49:40;;;;;;;;;;;;;;;-144.99;65.03;52211.66;5071008;28;19928;-70
2023/04/29 09:52:07;;;;;;;;;;;;;;;-144.99;65.27;52213.69;5070419;28;19931;-70
2023/04/29 09:54:37;;;;;;;;;;;;;;;-144.99;65.23;52225.94;5074625;28;19935;-70
2023/04/29 09:57:05;;;;;;;;;;;;;;;-144.99;65.59;52240.19;5082489;28;19931;-70
2023/04/29 09:59:34;;;;;;;;;;;;;;;-144.99;65.05;52207.59;5070095;28;19930;-70
2023/04/29 10:02:02;;;;;;;;;;;;;;;-144.99;64.58;52187.19;5069748;28;19928;-70
2023/04/29 10:04:30;;;;;;;;;;;;;;;-144.99;64.60;52187.19;5083312;28;19947;-70
2023/04/29 10:06:56;;;;;;;;;;;;;;;-144.99;64.29;52177.00;5075592;28;19924;-70
2023/04/29 10:09:23;;;;;;;;;;;;;;;-144.99;64.22;52162.75;5073626;28;19986;-69
2023/04/29 10:11:52;;;;;;;;;;;;;;;-144.99;64.32;52172.94;5072672;28;20301;-70
2023/04/29 10:14:19;;;;;;;;;;;;;;;-144.99;63.62;52170.91;5073427;28;19982;-70
2023/04/29 10:16:47;;;;;;;;;;;;;;;-144.99;63.83;52150.53;5073220;28;20139;-70
2023/04/29 10:19:15;;;;;;;;;;;;;;;-144.99;63.07;52172.94;5074579;28;19928;-70
2023/04/29 10:21:42;;;;;;;;;;;;;;;-144.99;62.90;52156.63;5069690;28;20132;-70
2023/04/29 10:24:12;;;;;;;;;;;;;;;-144.99;63.44;52195.34;5073706;28;19924;-71
2023/04/29 10:26:39;;;;;;;;;;;;;;;-144.99;63.40;52199.44;5077803;28;19929;-69
2023/04/29 10:29:07;;;;;;;;;;;;;;;-144.99;63.10;52217.78;5075113;28;19932;-72
2023/04/29 10:31:35;;;;;;;;;;;;;;;-144.99;63.51;52203.50;5077505;28;19947;-71
2023/04/29 10:34:02;;;;;;;;;;;;;;;-144.99;62.87;52138.28;5069872;28;19924;-70
2023/04/29 10:36:30;;;;;;;;;;;;;;;-144.99;62.63;52166.81;5068665;28;19928;-70
2023/04/29 10:38:58;;;;;;;;;;;;;;;-144.99;62.58;52170.91;5069241;28;19924;-72
2023/04/29 10:41:27;;;;;;;;;;;;;;;-144.99;62.36;52119.94;5069681;28;19946;-71
2023/04/29 10:43:54;;;;;;;;;;;;;;;-144.99;61.94;52142.38;5078036;28;20170;-71
2023/04/29 10:46:22;;;;;;;;;;;;;;;-144.99;61.05;52130.13;5069172;28;19924;-72
2023/04/29 10:48:51;;;;;;;;;;;;;;;-144.99;61.66;52109.75;5068992;28;20255;-71
2023/04/29 10:51:35;;;;;;;;;;;;;;;-144.99;61.11;52073.06;5077532;28;19928;-71
2023/04/29 10:54:03;;;;;;;;;;;;;;;-144.99;60.88;52048.63;5068906;28;20004;-71
2023/04/29 10:56:37;;;;;;;;;;;;;;;-144.99;60.72;52087.34;5072919;28;19928;-71
2023/04/29 10:59:03;;;;;;;;;;;;;;;-144.99;60.74;52093.44;5069136;28;19925;-70
2023/04/29 11:01:42;;;;;;;;;;;;;;;-144.99;60.66;52101.59;5068778;28;20349;-71
2023/04/29 11:04:09;;;;;;;;;;;;;;;-144.99;60.10;52097.53;5085052;28;19928;-71
2023/04/29 11:06:41;;;;;;;;;;;;;;;-144.99;59.81;52050.66;5069218;28;20027;-72
2023/04/29 11:09:12;;;;;;;;;;;;;;;-144.99;59.91;52060.84;5069521;28;19925;-72
2023/04/29 11:12:01;;;;;;;;;;;;;;;-144.99;60.24;52046.56;5069654;28;20001;-72
2023/04/29 11:14:30;;;;;;;;;;;;;;;-144.99;60.00;52077.16;5067194;28;20413;-71
2023/04/29 11:16:58;;;;;;;;;;;;;;;-144.99;60.82;52174.97;5072618;28;19927;-71
2023/04/29 11:19:27;;;;;;;;;;;;;;;-144.99;61.38;52187.19;5071530;28;19929;-71
2023/04/29 11:22:11;;;;;;;;;;;;;;;-144.99;61.65;52089.38;5082100;28;19924;-71
2023/04/29 11:24:48;;;;;;;;;;;;;;;-144.99;60.99;52056.78;5068129;28;19924;-69
2023/04/29 11:27:15;;;;;;;;;;;;;;;-144.99;59.96;52079.19;5074318;28;20182;-71
2023/04/29 11:29:41;;;;;;;;;;;;;;;-144.99;59.46;52028.22;5067904;28;20001;-70
2023/04/29 11:32:13;;;;;;;;;;;;;;;-144.99;59.22;52032.31;5071213;28;19971;-71
2023/04/29 11:34:39;;;;;;;;;;;;;;;-144.99;59.67;52042.50;5073678;28;19986;-70
2023/04/29 11:37:06;;;;;;;;;;;;;;;-144.99;60.27;52170.91;5068494;28;19990;-70
2023/04/29 11:39:33;;;;;;;;;;;;;;;-144.99;59.10;52020.09;5077376;28;20042;-70
2023/04/29 11:42:03;;;;;;;;;;;;;;;-144.99;58.97;52062.88;5068136;28;20009;-70
2023/04/29 11:44:30;;;;;;;;;;;;;;;-144.99;58.86;52073.06;5068342;28;19932;-71
2023/04/29 11:47:01;;;;;;;;;;;;;;;-144.99;58.97;52124.03;5073703;28;19996;-70
2023/04/29 11:49:31;;;;;;;;;;;;;;;-144.99;58.05;52183.13;5077833;28;19978;-70
2023/04/29 11:51:58;;;;;;;;;;;;;;;-144.99;58.41;52040.47;5068124;28;19935;-70
2023/04/29 11:54:25;;;;;;;;;;;;;;;-144.99;57.96;52199.44;5076679;28;19924;-71
2023/04/29 11:56:53;;;;;;;;;;;;;;;-144.99;58.26;52207.59;5071935;28;20415;-71
2023/04/29 11:59:20;;;;;;;;;;;;;;;-144.99;59.69;52203.50;5067351;28;19924;-71
2023/04/29 12:01:46;;;;;;;;;;;;;;;-144.99;61.66;52215.75;5076325;28;19975;-71
2023/04/29 12:04:13;;;;;;;;;;;;;;;-144.99;62.67;52203.50;5078098;28;19932;-71
2023/04/29 12:06:41;;;;;;;;;;;;;;;-144.99;63.52;52117.91;5067905;28;20006;-71
2023/04/29 12:09:08;;;;;;;;;;;;;;;-144.99;63.95;52219.81;5069342;28;20089;-71
2023/04/29 12:11:34;;;;;;;;;;;;;;;-144.99;63.49;52207.59;5078335;28;19924;-71
2023/04/29 12:14:04;;;;;;;;;;;;;;;-144.99;63.32;52158.66;5067759;28;19978;-71
2023/04/29 12:16:31;;;;;;;;;;;;;;;-144.99;62.65;52203.50;5075631;28;19931;-71
2023/04/29 12:18:59;;;;;;;;;;;;;;;-144.99;62.78;52152.56;5072277;28;20345;-70
2023/04/29 12:21:26;;;;;;;;;;;;;;;-144.99;62.85;52174.97;5067547;28;19951;-70
2023/04/29 12:23:54;;;;;;;;;;;;;;;-144.99;63.08;52217.78;5066216;28;19928;-71
2023/04/29 12:26:20;;;;;;;;;;;;;;;-144.99;62.06;52146.44;5067485;28;19924;-71